Shannon, Ireland

11:49 AM IST on August 24, 2016 (GMT +0100)
Shannon | | Change Station

Elev 66 ft 52.70 °N, 8.92 °W | Updated 19 minutes ago

Scattered Clouds
Scattered Clouds
63 °F
Feels Like 63 °F
N
4
Wind Variable Wind from Variable

Today
High -- | Low -- °F
--% Chance of Precip.
Yesterday
High -- | Low -- °F
Precip. -- in
Pressure 30.18 in
Visibility 6.2 miles
Clouds Few 1800 ft
Scattered Clouds 2200 ft
Dew Point 54 °F
Humidity 72%
Rainfall 0.00 in
Snow Depth Not available.
6:33 AM 8:41 PM
Waning Gibbous, 58% visible
METAR EINN 241030Z VRB03KT 9999 FEW018 SCT022 17/12 Q1022 NOSIG
Pressure 30.18 in
Visibility 6.2 miles
Clouds Few 1800 ft
Scattered Clouds 2200 ft
Dew Point 54 °F
Humidity 72%
Rainfall 0.00 in
Snow Depth Not available.
6:33 AM 8:41 PM
Waning Gibbous, 58% visible
METAR EINN 241030Z VRB03KT 9999 FEW018 SCT022 17/12 Q1022 NOSIG

10-Day Weather Forecast

×

Almanac

Astronomy

Aug. 24, 2016 Rise Set
Actual Time
Civil Twilight
Nautical Twilight
Astronomical Twilight
Moon
Length of Visible Light
Length of Day
Tomorrow will be .
, % of the Moon is Illuminated

Today's Extremes

Country Highs Country Lows

Community

WunderPhotos

Upload Photos

1,934,562 photos uploaded!

WunderBlog® & News

Nearby

Air Quality

  Air Quality AQ Index Pollutant
Not available.

Snow Depth

Station Depth Elevation

Earthquake Activity

City Distance Mag. Time & Date
Minimum magnitude displayed is 2.5.

Coastal Water Temperatures

Place Temperature

Stations

Nearby Weather Stations

Station Location Temp. Windchill Dew Point Humidity Wind Precip. Elev Updated Type